sensor_id;sensor_type;location;lat;lon;timestamp;temperature;humidity
67529;DHT22;54366;51.980;5.856;2023-08-06T00:02:12;17.30;81.90
67529;DHT22;54366;51.980;5.856;2023-08-06T00:04:45;17.20;81.90
67529;DHT22;54366;51.980;5.856;2023-08-06T00:07:18;17.30;81.90
67529;DHT22;54366;51.980;5.856;2023-08-06T00:09:51;17.30;81.70
67529;DHT22;54366;51.980;5.856;2023-08-06T00:12:17;17.30;81.90
67529;DHT22;54366;51.980;5.856;2023-08-06T00:14:51;17.30;82.10
67529;DHT22;54366;51.980;5.856;2023-08-06T00:17:17;17.30;82.30
67529;DHT22;54366;51.980;5.856;2023-08-06T00:19:50;17.30;82.30
67529;DHT22;54366;51.980;5.856;2023-08-06T00:22:23;17.30;82.30
67529;DHT22;54366;51.980;5.856;2023-08-06T00:24:56;17.30;82.20
67529;DHT22;54366;51.980;5.856;2023-08-06T00:27:30;17.30;82.30
67529;DHT22;54366;51.980;5.856;2023-08-06T00:30:11;17.30;82.30
67529;DHT22;54366;51.980;5.856;2023-08-06T00:32:44;17.30;82.50
67529;DHT22;54366;51.980;5.856;2023-08-06T00:35:17;17.30;82.70
67529;DHT22;54366;51.980;5.856;2023-08-06T00:37:50;17.30;82.40
67529;DHT22;54366;51.980;5.856;2023-08-06T00:40:16;17.30;82.40
67529;DHT22;54366;51.980;5.856;2023-08-06T00:42:52;17.30;82.60
67529;DHT22;54366;51.980;5.856;2023-08-06T00:45:25;17.30;82.60
67529;DHT22;54366;51.980;5.856;2023-08-06T00:47:52;17.30;82.50
67529;DHT22;54366;51.980;5.856;2023-08-06T00:50:25;17.30;82.60
67529;DHT22;54366;51.980;5.856;2023-08-06T00:52:58;17.30;82.70
67529;DHT22;54366;51.980;5.856;2023-08-06T00:55:33;17.20;82.60
67529;DHT22;54366;51.980;5.856;2023-08-06T00:58:06;17.30;82.80
67529;DHT22;54366;51.980;5.856;2023-08-06T01:00:39;17.20;82.70
67529;DHT22;54366;51.980;5.856;2023-08-06T01:03:12;17.20;82.70
67529;DHT22;54366;51.980;5.856;2023-08-06T01:05:38;17.20;82.70
67529;DHT22;54366;51.980;5.856;2023-08-06T01:08:54;17.20;82.70
67529;DHT22;54366;51.980;5.856;2023-08-06T01:11:42;17.20;83.30
67529;DHT22;54366;51.980;5.856;2023-08-06T01:14:37;17.10;83.00
67529;DHT22;54366;51.980;5.856;2023-08-06T01:17:14;17.10;83.20
67529;DHT22;54366;51.980;5.856;2023-08-06T01:19:48;17.10;83.30
67529;DHT22;54366;51.980;5.856;2023-08-06T01:22:14;17.10;83.40
67529;DHT22;54366;51.980;5.856;2023-08-06T01:24:49;17.10;83.50
67529;DHT22;54366;51.980;5.856;2023-08-06T01:27:46;17.00;83.80
67529;DHT22;54366;51.980;5.856;2023-08-06T01:30:30;17.00;83.70
67529;DHT22;54366;51.980;5.856;2023-08-06T01:33:14;17.00;83.90
67529;DHT22;54366;51.980;5.856;2023-08-06T01:35:50;16.90;83.80
67529;DHT22;54366;51.980;5.856;2023-08-06T01:38:17;16.90;83.90
67529;DHT22;54366;51.980;5.856;2023-08-06T01:40:50;16.90;83.80
67529;DHT22;54366;51.980;5.856;2023-08-06T01:43:23;16.90;83.80
67529;DHT22;54366;51.980;5.856;2023-08-06T01:45:56;16.90;84.00
67529;DHT22;54366;51.980;5.856;2023-08-06T01:48:24;16.90;84.10
67529;DHT22;54366;51.980;5.856;2023-08-06T01:50:57;16.90;84.30
67529;DHT22;54366;51.980;5.856;2023-08-06T01:53:30;17.00;84.20
67529;DHT22;54366;51.980;5.856;2023-08-06T01:56:04;17.00;84.10
67529;DHT22;54366;51.980;5.856;2023-08-06T01:58:30;16.90;84.00
67529;DHT22;54366;51.980;5.856;2023-08-06T02:01:03;16.90;84.00
67529;DHT22;54366;51.980;5.856;2023-08-06T02:03:36;17.00;84.20
67529;DHT22;54366;51.980;5.856;2023-08-06T02:06:10;17.00;84.30
67529;DHT22;54366;51.980;5.856;2023-08-06T02:08:45;17.00;84.60
67529;DHT22;54366;51.980;5.856;2023-08-06T02:11:18;16.90;84.30
67529;DHT22;54366;51.980;5.856;2023-08-06T02:13:46;16.90;84.50
67529;DHT22;54366;51.980;5.856;2023-08-06T02:16:19;16.90;84.40
67529;DHT22;54366;51.980;5.856;2023-08-06T02:18:52;16.90;84.40
67529;DHT22;54366;51.980;5.856;2023-08-06T02:21:19;16.90;84.40
67529;DHT22;54366;51.980;5.856;2023-08-06T02:23:53;16.90;84.40
67529;DHT22;54366;51.980;5.856;2023-08-06T02:26:26;16.90;84.50
67529;DHT22;54366;51.980;5.856;2023-08-06T02:28:55;16.90;84.30
67529;DHT22;54366;51.980;5.856;2023-08-06T02:31:28;16.90;84.40
67529;DHT22;54366;51.980;5.856;2023-08-06T02:34:01;16.90;84.30
67529;DHT22;54366;51.980;5.856;2023-08-06T02:36:34;16.90;84.70
67529;DHT22;54366;51.980;5.856;2023-08-06T02:39:00;16.90;84.40
67529;DHT22;54366;51.980;5.856;2023-08-06T02:41:33;16.90;84.40
67529;DHT22;54366;51.980;5.856;2023-08-06T02:44:06;16.90;84.40
67529;DHT22;54366;51.980;5.856;2023-08-06T02:46:39;16.90;84.40
67529;DHT22;54366;51.980;5.856;2023-08-06T02:49:13;16.90;84.60
67529;DHT22;54366;51.980;5.856;2023-08-06T02:51:46;16.90;84.60
67529;DHT22;54366;51.980;5.856;2023-08-06T02:54:19;16.90;84.50
67529;DHT22;54366;51.980;5.856;2023-08-06T02:56:52;16.90;84.50
67529;DHT22;54366;51.980;5.856;2023-08-06T02:59:30;16.90;84.40
67529;DHT22;54366;51.980;5.856;2023-08-06T03:02:07;16.90;84.50
67529;DHT22;54366;51.980;5.856;2023-08-06T03:04:53;16.90;84.60
67529;DHT22;54366;51.980;5.856;2023-08-06T03:07:30;16.90;84.60
67529;DHT22;54366;51.980;5.856;2023-08-06T03:10:09;16.90;84.50
67529;DHT22;54366;51.980;5.856;2023-08-06T03:12:43;16.90;84.60
67529;DHT22;54366;51.980;5.856;2023-08-06T03:15:16;16.90;84.40
67529;DHT22;54366;51.980;5.856;2023-08-06T03:17:50;16.90;84.40
67529;DHT22;54366;51.980;5.856;2023-08-06T03:20:24;16.90;84.40
67529;DHT22;54366;51.980;5.856;2023-08-06T03:22:51;16.90;84.50
67529;DHT22;54366;51.980;5.856;2023-08-06T03:25:24;16.90;84.60
67529;DHT22;54366;51.980;5.856;2023-08-06T03:28:03;16.90;84.60
67529;DHT22;54366;51.980;5.856;2023-08-06T03:30:43;16.90;84.70
67529;DHT22;54366;51.980;5.856;2023-08-06T03:33:12;16.90;84.70
67529;DHT22;54366;51.980;5.856;2023-08-06T03:35:45;16.90;84.60
67529;DHT22;54366;51.980;5.856;2023-08-06T03:38:19;16.90;84.60
67529;DHT22;54366;51.980;5.856;2023-08-06T03:40:53;16.90;84.80
67529;DHT22;54366;51.980;5.856;2023-08-06T03:43:26;16.90;84.60
67529;DHT22;54366;51.980;5.856;2023-08-06T03:46:00;16.90;84.50
67529;DHT22;54366;51.980;5.856;2023-08-06T03:48:34;16.90;84.60
67529;DHT22;54366;51.980;5.856;2023-08-06T03:51:00;16.80;84.60
67529;DHT22;54366;51.980;5.856;2023-08-06T03:53:34;16.90;84.80
67529;DHT22;54366;51.980;5.856;2023-08-06T03:56:07;16.90;84.70
67529;DHT22;54366;51.980;5.856;2023-08-06T03:58:40;16.90;84.60
67529;DHT22;54366;51.980;5.856;2023-08-06T04:01:13;16.90;84.60
67529;DHT22;54366;51.980;5.856;2023-08-06T04:03:47;16.90;84.50
67529;DHT22;54366;51.980;5.856;2023-08-06T04:06:20;16.90;84.40
67529;DHT22;54366;51.980;5.856;2023-08-06T04:08:53;16.90;84.40
67529;DHT22;54366;51.980;5.856;2023-08-06T04:11:26;16.90;84.50
67529;DHT22;54366;51.980;5.856;2023-08-06T04:13:52;16.90;84.40
67529;DHT22;54366;51.980;5.856;2023-08-06T04:16:26;16.90;84.80
67529;DHT22;54366;51.980;5.856;2023-08-06T04:18:59;16.90;84.90
67529;DHT22;54366;51.980;5.856;2023-08-06T04:21:33;16.90;85.00
67529;DHT22;54366;51.980;5.856;2023-08-06T04:24:00;16.90;85.00
67529;DHT22;54366;51.980;5.856;2023-08-06T04:26:33;16.90;84.80
67529;DHT22;54366;51.980;5.856;2023-08-06T04:29:00;16.90;84.80
67529;DHT22;54366;51.980;5.856;2023-08-06T04:31:33;16.90;84.80
67529;DHT22;54366;51.980;5.856;2023-08-06T04:34:00;16.90;84.70
67529;DHT22;54366;51.980;5.856;2023-08-06T04:36:34;16.90;84.70
67529;DHT22;54366;51.980;5.856;2023-08-06T04:39:09;16.90;85.00
67529;DHT22;54366;51.980;5.856;2023-08-06T04:41:42;16.90;84.80
67529;DHT22;54366;51.980;5.856;2023-08-06T04:44:15;16.90;84.70
67529;DHT22;54366;51.980;5.856;2023-08-06T04:46:42;17.00;84.70
67529;DHT22;54366;51.980;5.856;2023-08-06T04:49:15;16.90;84.80
67529;DHT22;54366;51.980;5.856;2023-08-06T04:51:48;17.00;84.90
67529;DHT22;54366;51.980;5.856;2023-08-06T04:54:14;17.00;84.80
67529;DHT22;54366;51.980;5.856;2023-08-06T04:56:47;17.00;84.90
67529;DHT22;54366;51.980;5.856;2023-08-06T04:59:13;17.00;85.10
67529;DHT22;54366;51.980;5.856;2023-08-06T05:01:46;17.00;85.10
67529;DHT22;54366;51.980;5.856;2023-08-06T05:04:19;17.00;85.10
67529;DHT22;54366;51.980;5.856;2023-08-06T05:06:45;17.10;85.20
67529;DHT22;54366;51.980;5.856;2023-08-06T05:09:18;17.00;85.40
67529;DHT22;54366;51.980;5.856;2023-08-06T05:11:52;17.10;85.60
67529;DHT22;54366;51.980;5.856;2023-08-06T05:14:25;17.10;85.50
67529;DHT22;54366;51.980;5.856;2023-08-06T05:16:58;17.20;85.20
67529;DHT22;54366;51.980;5.856;2023-08-06T05:19:24;17.10;85.10
67529;DHT22;54366;51.980;5.856;2023-08-06T05:21:57;17.20;85.50
67529;DHT22;54366;51.980;5.856;2023-08-06T05:24:30;17.20;85.40
67529;DHT22;54366;51.980;5.856;2023-08-06T05:27:03;17.20;85.50
67529;DHT22;54366;51.980;5.856;2023-08-06T05:29:42;17.30;85.70
67529;DHT22;54366;51.980;5.856;2023-08-06T05:32:16;17.30;85.50
67529;DHT22;54366;51.980;5.856;2023-08-06T05:34:42;17.30;85.30
67529;DHT22;54366;51.980;5.856;2023-08-06T05:37:15;17.40;85.10
67529;DHT22;54366;51.980;5.856;2023-08-06T05:39:48;17.40;85.20
67529;DHT22;54366;51.980;5.856;2023-08-06T05:42:15;17.40;85.40
67529;DHT22;54366;51.980;5.856;2023-08-06T05:44:48;17.50;85.50
67529;DHT22;54366;51.980;5.856;2023-08-06T05:47:14;17.50;85.30
67529;DHT22;54366;51.980;5.856;2023-08-06T05:49:47;17.50;85.10
67529;DHT22;54366;51.980;5.856;2023-08-06T05:52:20;17.50;85.00
67529;DHT22;54366;51.980;5.856;2023-08-06T05:54:53;17.50;85.00
67529;DHT22;54366;51.980;5.856;2023-08-06T05:57:27;17.50;85.10
67529;DHT22;54366;51.980;5.856;2023-08-06T06:00:01;17.50;85.30
67529;DHT22;54366;51.980;5.856;2023-08-06T06:02:27;17.50;85.20
67529;DHT22;54366;51.980;5.856;2023-08-06T06:05:00;17.50;85.00
67529;DHT22;54366;51.980;5.856;2023-08-06T06:07:33;17.50;85.10
67529;DHT22;54366;51.980;5.856;2023-08-06T06:10:07;17.50;84.90
67529;DHT22;54366;51.980;5.856;2023-08-06T06:12:40;17.50;85.00
67529;DHT22;54366;51.980;5.856;2023-08-06T06:15:07;17.50;84.90
67529;DHT22;54366;51.980;5.856;2023-08-06T06:17:40;17.60;85.10
67529;DHT22;54366;51.980;5.856;2023-08-06T06:20:13;17.50;84.90
67529;DHT22;54366;51.980;5.856;2023-08-06T06:22:46;17.50;84.80
67529;DHT22;54366;51.980;5.856;2023-08-06T06:25:12;17.60;84.80
67529;DHT22;54366;51.980;5.856;2023-08-06T06:27:45;17.50;84.70
67529;DHT22;54366;51.980;5.856;2023-08-06T06:30:18;17.50;84.80
67529;DHT22;54366;51.980;5.856;2023-08-06T06:32:58;17.60;85.10
67529;DHT22;54366;51.980;5.856;2023-08-06T06:35:24;17.50;85.00
67529;DHT22;54366;51.980;5.856;2023-08-06T06:37:57;17.60;85.10
67529;DHT22;54366;51.980;5.856;2023-08-06T06:40:30;17.60;84.80
67529;DHT22;54366;51.980;5.856;2023-08-06T06:43:03;17.60;84.90
67529;DHT22;54366;51.980;5.856;2023-08-06T06:45:36;17.60;85.00
67529;DHT22;54366;51.980;5.856;2023-08-06T06:48:09;17.60;85.10
67529;DHT22;54366;51.980;5.856;2023-08-06T06:50:36;17.60;85.20
67529;DHT22;54366;51.980;5.856;2023-08-06T06:53:09;17.60;85.10
67529;DHT22;54366;51.980;5.856;2023-08-06T06:55:42;17.60;85.30
67529;DHT22;54366;51.980;5.856;2023-08-06T06:58:15;17.60;85.60
67529;DHT22;54366;51.980;5.856;2023-08-06T07:00:49;17.60;85.60
67529;DHT22;54366;51.980;5.856;2023-08-06T07:03:22;17.70;85.40
67529;DHT22;54366;51.980;5.856;2023-08-06T07:05:49;17.70;85.40
67529;DHT22;54366;51.980;5.856;2023-08-06T07:08:22;17.70;85.20
67529;DHT22;54366;51.980;5.856;2023-08-06T07:11:03;17.70;85.00
67529;DHT22;54366;51.980;5.856;2023-08-06T07:13:36;17.60;84.90
67529;DHT22;54366;51.980;5.856;2023-08-06T07:16:09;17.60;84.90
67529;DHT22;54366;51.980;5.856;2023-08-06T07:18:42;17.60;85.00
67529;DHT22;54366;51.980;5.856;2023-08-06T07:21:15;17.60;85.10
67529;DHT22;54366;51.980;5.856;2023-08-06T07:23:48;17.60;85.00
67529;DHT22;54366;51.980;5.856;2023-08-06T07:26:22;17.60;85.10
67529;DHT22;54366;51.980;5.856;2023-08-06T07:28:48;17.60;85.00
67529;DHT22;54366;51.980;5.856;2023-08-06T07:31:22;17.60;85.10
67529;DHT22;54366;51.980;5.856;2023-08-06T07:33:55;17.70;85.30
67529;DHT22;54366;51.980;5.856;2023-08-06T07:36:28;17.70;85.10
67529;DHT22;54366;51.980;5.856;2023-08-06T07:39:01;17.70;85.10
67529;DHT22;54366;51.980;5.856;2023-08-06T07:41:35;17.70;85.80
67529;DHT22;54366;51.980;5.856;2023-08-06T07:44:08;17.70;85.00
67529;DHT22;54366;51.980;5.856;2023-08-06T07:46:34;17.70;84.80
67529;DHT22;54366;51.980;5.856;2023-08-06T07:49:09;17.70;84.80
67529;DHT22;54366;51.980;5.856;2023-08-06T07:51:43;17.70;84.80
67529;DHT22;54366;51.980;5.856;2023-08-06T07:54:09;17.70;84.90
67529;DHT22;54366;51.980;5.856;2023-08-06T07:56:42;17.70;85.10
67529;DHT22;54366;51.980;5.856;2023-08-06T07:59:15;17.80;85.10
67529;DHT22;54366;51.980;5.856;2023-08-06T08:01:48;17.80;85.10
67529;DHT22;54366;51.980;5.856;2023-08-06T08:04:21;17.80;84.90
67529;DHT22;54366;51.980;5.856;2023-08-06T08:06:54;17.90;84.90
67529;DHT22;54366;51.980;5.856;2023-08-06T08:09:27;17.90;84.90
67529;DHT22;54366;51.980;5.856;2023-08-06T08:11:54;17.90;84.70
67529;DHT22;54366;51.980;5.856;2023-08-06T08:14:26;17.90;84.40
67529;DHT22;54366;51.980;5.856;2023-08-06T08:16:59;17.90;84.50
67529;DHT22;54366;51.980;5.856;2023-08-06T08:19:32;17.90;84.60
67529;DHT22;54366;51.980;5.856;2023-08-06T08:22:05;17.90;84.50
67529;DHT22;54366;51.980;5.856;2023-08-06T08:24:38;17.90;84.70
67529;DHT22;54366;51.980;5.856;2023-08-06T08:27:05;18.00;84.80
67529;DHT22;54366;51.980;5.856;2023-08-06T08:29:44;18.00;84.60
67529;DHT22;54366;51.980;5.856;2023-08-06T08:32:17;18.10;84.80
67529;DHT22;54366;51.980;5.856;2023-08-06T08:34:50;18.20;84.70
67529;DHT22;54366;51.980;5.856;2023-08-06T08:37:16;18.30;84.60
67529;DHT22;54366;51.980;5.856;2023-08-06T08:39:49;18.30;84.40
67529;DHT22;54366;51.980;5.856;2023-08-06T08:42:22;18.40;83.30
67529;DHT22;54366;51.980;5.856;2023-08-06T08:44:55;18.40;83.40
67529;DHT22;54366;51.980;5.856;2023-08-06T08:47:29;18.40;83.20
67529;DHT22;54366;51.980;5.856;2023-08-06T08:50:05;18.50;83.10
67529;DHT22;54366;51.980;5.856;2023-08-06T08:52:39;18.50;83.40
67529;DHT22;54366;51.980;5.856;2023-08-06T08:55:15;18.50;82.90
67529;DHT22;54366;51.980;5.856;2023-08-06T08:57:49;18.50;82.90
67529;DHT22;54366;51.980;5.856;2023-08-06T09:00:22;18.60;83.00
67529;DHT22;54366;51.980;5.856;2023-08-06T09:02:49;18.60;83.00
67529;DHT22;54366;51.980;5.856;2023-08-06T09:05:23;18.70;83.00
67529;DHT22;54366;51.980;5.856;2023-08-06T09:08:03;18.70;83.00
67529;DHT22;54366;51.980;5.856;2023-08-06T09:10:36;18.80;82.80
67529;DHT22;54366;51.980;5.856;2023-08-06T09:13:10;18.80;82.60
67529;DHT22;54366;51.980;5.856;2023-08-06T09:15:44;18.80;82.20
67529;DHT22;54366;51.980;5.856;2023-08-06T09:18:28;18.80;81.90
67529;DHT22;54366;51.980;5.856;2023-08-06T09:21:02;18.70;82.10
67529;DHT22;54366;51.980;5.856;2023-08-06T09:23:35;18.60;81.90
67529;DHT22;54366;51.980;5.856;2023-08-06T09:26:11;18.60;82.10
67529;DHT22;54366;51.980;5.856;2023-08-06T09:28:45;18.50;82.30
67529;DHT22;54366;51.980;5.856;2023-08-06T09:31:18;18.50;82.70
67529;DHT22;54366;51.980;5.856;2023-08-06T09:33:51;18.50;82.90
67529;DHT22;54366;51.980;5.856;2023-08-06T09:36:24;18.50;82.90
67529;DHT22;54366;51.980;5.856;2023-08-06T09:38:50;18.40;83.20
67529;DHT22;54366;51.980;5.856;2023-08-06T09:41:27;18.40;83.50
67529;DHT22;54366;51.980;5.856;2023-08-06T09:44:01;18.30;83.10
67529;DHT22;54366;51.980;5.856;2023-08-06T09:46:34;18.20;83.20
67529;DHT22;54366;51.980;5.856;2023-08-06T09:49:07;18.10;83.70
67529;DHT22;54366;51.980;5.856;2023-08-06T09:51:42;18.20;84.50
67529;DHT22;54366;51.980;5.856;2023-08-06T09:54:12;18.10;84.70
67529;DHT22;54366;51.980;5.856;2023-08-06T09:56:46;18.10;84.70
67529;DHT22;54366;51.980;5.856;2023-08-06T09:59:20;18.10;84.70
67529;DHT22;54366;51.980;5.856;2023-08-06T10:01:47;18.10;84.80
67529;DHT22;54366;51.980;5.856;2023-08-06T10:04:20;18.10;84.90
67529;DHT22;54366;51.980;5.856;2023-08-06T10:06:53;18.00;85.10
67529;DHT22;54366;51.980;5.856;2023-08-06T10:09:27;18.00;84.80
67529;DHT22;54366;51.980;5.856;2023-08-06T10:12:00;17.90;84.90
67529;DHT22;54366;51.980;5.856;2023-08-06T10:14:35;17.90;85.10
67529;DHT22;54366;51.980;5.856;2023-08-06T10:17:09;17.80;85.50
67529;DHT22;54366;51.980;5.856;2023-08-06T10:19:42;17.90;85.60
67529;DHT22;54366;51.980;5.856;2023-08-06T10:22:14;17.80;85.10
67529;DHT22;54366;51.980;5.856;2023-08-06T10:24:54;17.70;83.40
67529;DHT22;54366;51.980;5.856;2023-08-06T10:27:39;17.50;83.10
67529;DHT22;54366;51.980;5.856;2023-08-06T10:30:31;17.40;82.90
67529;DHT22;54366;51.980;5.856;2023-08-06T10:33:11;17.20;82.20
67529;DHT22;54366;51.980;5.856;2023-08-06T10:35:48;17.00;83.10
67529;DHT22;54366;51.980;5.856;2023-08-06T10:38:25;16.90;82.80
67529;DHT22;54366;51.980;5.856;2023-08-06T10:41:03;16.80;83.70
67529;DHT22;54366;51.980;5.856;2023-08-06T10:43:36;16.80;84.40
67529;DHT22;54366;51.980;5.856;2023-08-06T10:46:26;16.80;84.70
67529;DHT22;54366;51.980;5.856;2023-08-06T10:48:59;16.80;84.70
67529;DHT22;54366;51.980;5.856;2023-08-06T10:51:26;16.70;84.80
67529;DHT22;54366;51.980;5.856;2023-08-06T10:53:59;16.70;85.10
67529;DHT22;54366;51.980;5.856;2023-08-06T10:56:39;16.70;85.30
67529;DHT22;54366;51.980;5.856;2023-08-06T10:59:15;16.60;85.70
67529;DHT22;54366;51.980;5.856;2023-08-06T11:01:41;16.60;85.90
67529;DHT22;54366;51.980;5.856;2023-08-06T11:04:15;16.60;86.30
67529;DHT22;54366;51.980;5.856;2023-08-06T11:06:43;16.60;85.80
67529;DHT22;54366;51.980;5.856;2023-08-06T11:09:15;16.50;86.20
67529;DHT22;54366;51.980;5.856;2023-08-06T11:11:49;16.50;86.20
67529;DHT22;54366;51.980;5.856;2023-08-06T11:14:22;16.50;86.60
67529;DHT22;54366;51.980;5.856;2023-08-06T11:16:55;16.50;86.50
67529;DHT22;54366;51.980;5.856;2023-08-06T11:19:29;16.50;86.60
67529;DHT22;54366;51.980;5.856;2023-08-06T11:22:01;16.50;87.10
67529;DHT22;54366;51.980;5.856;2023-08-06T11:24:34;16.50;86.70
67529;DHT22;54366;51.980;5.856;2023-08-06T11:27:14;16.40;86.90
67529;DHT22;54366;51.980;5.856;2023-08-06T11:29:54;16.40;86.70
67529;DHT22;54366;51.980;5.856;2023-08-06T11:32:26;16.40;87.10
67529;DHT22;54366;51.980;5.856;2023-08-06T11:35:09;16.50;87.30
67529;DHT22;54366;51.980;5.856;2023-08-06T11:37:46;16.50;87.20
67529;DHT22;54366;51.980;5.856;2023-08-06T11:40:20;16.50;87.10
67529;DHT22;54366;51.980;5.856;2023-08-06T11:42:46;16.60;87.40
67529;DHT22;54366;51.980;5.856;2023-08-06T11:45:22;16.60;87.40
67529;DHT22;54366;51.980;5.856;2023-08-06T11:47:56;16.60;87.40
67529;DHT22;54366;51.980;5.856;2023-08-06T11:50:29;16.60;87.50
67529;DHT22;54366;51.980;5.856;2023-08-06T11:53:03;16.60;87.50
67529;DHT22;54366;51.980;5.856;2023-08-06T11:55:30;16.70;87.70
67529;DHT22;54366;51.980;5.856;2023-08-06T11:58:04;16.70;87.50
67529;DHT22;54366;51.980;5.856;2023-08-06T12:00:39;16.70;87.10
67529;DHT22;54366;51.980;5.856;2023-08-06T12:03:12;16.70;86.90
67529;DHT22;54366;51.980;5.856;2023-08-06T12:05:45;16.70;86.60
67529;DHT22;54366;51.980;5.856;2023-08-06T12:08:13;16.60;86.70
67529;DHT22;54366;51.980;5.856;2023-08-06T12:10:46;16.60;86.60
67529;DHT22;54366;51.980;5.856;2023-08-06T12:13:13;16.60;86.80
67529;DHT22;54366;51.980;5.856;2023-08-06T12:15:45;16.50;86.90
67529;DHT22;54366;51.980;5.856;2023-08-06T12:18:18;16.50;87.00
67529;DHT22;54366;51.980;5.856;2023-08-06T12:20:51;16.50;87.10
67529;DHT22;54366;51.980;5.856;2023-08-06T12:23:24;16.40;87.20
67529;DHT22;54366;51.980;5.856;2023-08-06T12:25:57;16.40;87.40
67529;DHT22;54366;51.980;5.856;2023-08-06T12:28:31;16.40;87.80
67529;DHT22;54366;51.980;5.856;2023-08-06T12:31:17;16.50;87.80
67529;DHT22;54366;51.980;5.856;2023-08-06T12:33:50;16.50;87.80
67529;DHT22;54366;51.980;5.856;2023-08-06T12:36:23;16.50;87.70
67529;DHT22;54366;51.980;5.856;2023-08-06T12:38:49;16.50;87.70
67529;DHT22;54366;51.980;5.856;2023-08-06T12:41:22;16.50;87.50
67529;DHT22;54366;51.980;5.856;2023-08-06T12:43:55;16.50;87.40
67529;DHT22;54366;51.980;5.856;2023-08-06T12:46:28;16.50;87.30
67529;DHT22;54366;51.980;5.856;2023-08-06T12:49:01;16.50;87.20
67529;DHT22;54366;51.980;5.856;2023-08-06T12:51:34;16.50;87.00
67529;DHT22;54366;51.980;5.856;2023-08-06T12:54:07;16.50;86.90
67529;DHT22;54366;51.980;5.856;2023-08-06T12:56:40;16.50;87.10
67529;DHT22;54366;51.980;5.856;2023-08-06T12:59:15;16.50;86.90
67529;DHT22;54366;51.980;5.856;2023-08-06T13:01:42;16.40;86.90
67529;DHT22;54366;51.980;5.856;2023-08-06T13:04:15;16.40;87.20
67529;DHT22;54366;51.980;5.856;2023-08-06T13:06:48;16.40;87.30
67529;DHT22;54366;51.980;5.856;2023-08-06T13:09:21;16.40;87.00
67529;DHT22;54366;51.980;5.856;2023-08-06T13:11:54;16.30;87.20
67529;DHT22;54366;51.980;5.856;2023-08-06T13:14:27;16.40;87.30
67529;DHT22;54366;51.980;5.856;2023-08-06T13:17:01;16.40;87.20
67529;DHT22;54366;51.980;5.856;2023-08-06T13:19:35;16.40;87.10
67529;DHT22;54366;51.980;5.856;2023-08-06T13:22:20;16.40;87.00
67529;DHT22;54366;51.980;5.856;2023-08-06T13:24:53;16.40;87.20
67529;DHT22;54366;51.980;5.856;2023-08-06T13:27:26;16.40;87.20
67529;DHT22;54366;51.980;5.856;2023-08-06T13:29:52;16.40;87.10
67529;DHT22;54366;51.980;5.856;2023-08-06T13:32:25;16.40;87.30
67529;DHT22;54366;51.980;5.856;2023-08-06T13:34:58;16.40;87.30
67529;DHT22;54366;51.980;5.856;2023-08-06T13:37:24;16.50;87.40
67529;DHT22;54366;51.980;5.856;2023-08-06T13:39:57;16.50;87.50
67529;DHT22;54366;51.980;5.856;2023-08-06T13:42:30;16.50;88.10
67529;DHT22;54366;51.980;5.856;2023-08-06T13:45:05;16.50;87.40
67529;DHT22;54366;51.980;5.856;2023-08-06T13:47:32;16.50;87.40
67529;DHT22;54366;51.980;5.856;2023-08-06T13:50:05;16.50;87.60
67529;DHT22;54366;51.980;5.856;2023-08-06T13:52:38;16.50;87.50
67529;DHT22;54366;51.980;5.856;2023-08-06T13:55:11;16.50;87.40
67529;DHT22;54366;51.980;5.856;2023-08-06T13:57:37;16.40;87.50
67529;DHT22;54366;51.980;5.856;2023-08-06T14:00:11;16.50;87.90
67529;DHT22;54366;51.980;5.856;2023-08-06T14:02:44;16.50;87.90
67529;DHT22;54366;51.980;5.856;2023-08-06T14:05:17;16.50;87.80
67529;DHT22;54366;51.980;5.856;2023-08-06T14:07:44;16.50;87.80
67529;DHT22;54366;51.980;5.856;2023-08-06T14:10:16;16.50;87.80
67529;DHT22;54366;51.980;5.856;2023-08-06T14:12:49;16.60;88.50
67529;DHT22;54366;51.980;5.856;2023-08-06T14:15:22;16.60;87.90
67529;DHT22;54366;51.980;5.856;2023-08-06T14:17:48;16.60;87.80
67529;DHT22;54366;51.980;5.856;2023-08-06T14:20:21;16.60;87.80
67529;DHT22;54366;51.980;5.856;2023-08-06T14:22:54;16.60;87.80
67529;DHT22;54366;51.980;5.856;2023-08-06T14:25:27;16.70;87.70
67529;DHT22;54366;51.980;5.856;2023-08-06T14:28:01;16.70;87.70
67529;DHT22;54366;51.980;5.856;2023-08-06T14:30:27;16.70;87.80
67529;DHT22;54366;51.980;5.856;2023-08-06T14:33:00;16.70;87.90
67529;DHT22;54366;51.980;5.856;2023-08-06T14:35:33;16.80;87.90
67529;DHT22;54366;51.980;5.856;2023-08-06T14:38:06;16.70;87.80
67529;DHT22;54366;51.980;5.856;2023-08-06T14:40:39;16.80;88.00
67529;DHT22;54366;51.980;5.856;2023-08-06T14:43:06;16.80;87.90
67529;DHT22;54366;51.980;5.856;2023-08-06T14:45:40;16.80;87.80
67529;DHT22;54366;51.980;5.856;2023-08-06T14:48:12;16.90;87.80
67529;DHT22;54366;51.980;5.856;2023-08-06T14:50:45;16.90;87.80
67529;DHT22;54366;51.980;5.856;2023-08-06T14:53:18;16.90;87.80
67529;DHT22;54366;51.980;5.856;2023-08-06T14:55:51;16.90;87.70
67529;DHT22;54366;51.980;5.856;2023-08-06T14:58:24;17.00;87.70
67529;DHT22;54366;51.980;5.856;2023-08-06T15:00:57;17.00;87.60
67529;DHT22;54366;51.980;5.856;2023-08-06T15:03:30;17.00;87.80
67529;DHT22;54366;51.980;5.856;2023-08-06T15:06:03;17.10;88.40
67529;DHT22;54366;51.980;5.856;2023-08-06T15:08:36;17.00;87.80
67529;DHT22;54366;51.980;5.856;2023-08-06T15:11:09;17.10;88.00
67529;DHT22;54366;51.980;5.856;2023-08-06T15:13:35;17.10;87.90
67529;DHT22;54366;51.980;5.856;2023-08-06T15:16:08;17.10;87.90
67529;DHT22;54366;51.980;5.856;2023-08-06T15:18:34;17.10;87.90
67529;DHT22;54366;51.980;5.856;2023-08-06T15:21:07;17.10;88.00
67529;DHT22;54366;51.980;5.856;2023-08-06T15:23:40;17.20;88.20
67529;DHT22;54366;51.980;5.856;2023-08-06T15:26:13;17.10;88.00
67529;DHT22;54366;51.980;5.856;2023-08-06T15:28:46;17.20;88.10
67529;DHT22;54366;51.980;5.856;2023-08-06T15:31:37;17.20;87.90
67529;DHT22;54366;51.980;5.856;2023-08-06T15:34:10;17.20;87.80
67529;DHT22;54366;51.980;5.856;2023-08-06T15:36:43;17.30;87.90
67529;DHT22;54366;51.980;5.856;2023-08-06T15:39:16;17.30;88.10
67529;DHT22;54366;51.980;5.856;2023-08-06T15:41:43;17.30;88.10
67529;DHT22;54366;51.980;5.856;2023-08-06T15:44:16;17.40;88.20
67529;DHT22;54366;51.980;5.856;2023-08-06T15:46:49;17.30;88.20
67529;DHT22;54366;51.980;5.856;2023-08-06T15:49:22;17.40;88.20
67529;DHT22;54366;51.980;5.856;2023-08-06T15:51:55;17.40;88.10
67529;DHT22;54366;51.980;5.856;2023-08-06T15:54:28;17.40;88.10
67529;DHT22;54366;51.980;5.856;2023-08-06T15:56:55;17.40;88.00
67529;DHT22;54366;51.980;5.856;2023-08-06T15:59:29;17.40;88.00
67529;DHT22;54366;51.980;5.856;2023-08-06T16:02:02;17.40;87.80
67529;DHT22;54366;51.980;5.856;2023-08-06T16:04:35;17.30;85.90
67529;DHT22;54366;51.980;5.856;2023-08-06T16:07:02;17.20;85.90